Aeroporto :
LOGIN :

Iscrizione | Disclaimer

   EN    FR    IT 

 










Sommario :    VFR   VFR Marginale   IFR   IFR Intensivo   IFR Molto Intensivo
Visibilità : 
Base nubi : 
>= 8 km
>= 3000ft
5 / 8 km
1000 / 3000 ft
1500m / 5 km
500 / 1000 ft
800 / 1500m
200 / 500 ft
< 800m
< 200 ft
Simboli :   Temporali  Nebbia  Neve Forte  Precipitazioni Forti  Vento > 20 kt
SIGMETs :   Varie  Temporali  Ghiacco  Turbolenza  Onda orograficha  Ceneri Vulcaniche






- Altitudine del aeroporto : 56 ft
- Codice IATA : ILY


EGPI - Islay

ULTIMO METAR :
  • 160650Z AUTO 21019KT 170V240 9999 -RA BKN012/// 05/04 Q0986

METARs OBSOLETI :
  • 160620Z AUTO 20017KT 170V230 9999 -RA BKN012/// 05/04 Q0986
  • 160550Z AUTO 20016KT 170V230 9999 BKN014/// 05/04 Q0986 RERA
  • 160520Z AUTO 21016KT 170V240 9999 -RA BKN012/// 05/03 Q0986
  • 160450Z AUTO 17007KT 140V210 9999 NCD 03/02 Q0986
  • 160420Z AUTO 13008KT 110V190 9999 NCD 02/01 Q0986

TAF TAF EGPI
Valido dal 16 a 06 ore il 16 a 15 ore UTC


160458Z 1606/1615 18009KT 9999 SCT016
BECMG 1606/1609 22022G32KT
TEMPO 1606/1615 6000 SHRA BKN012
PROB30
TEMPO 1608/1615 3000 +SHRA SHRAGS BKN009



MetMap, La meteo Aeronautica in un colpo d'occhio ! - Copyright ORBIFLY Dicembre 2007 - Disclaimer

ORBIFLY MET'MAP TEAM :

Programmazione e sviluppo : Alexandra Zaïnal
Concezione : Baudouin d'Aumeries
Aiuto per la programmazione : Marc-Olivier Méhu
Supporto tecnico e logistico : Manuel Goepfert
Aiuto per la traduzione : Arnaldo La Scala

Contatto : metmap@orbifly.com




FONTI E CREDITI :

   NOAA